createdAt,value
2023-02-27T00:01:50.013Z,943.30
2023-02-27T00:04:16.351Z,943.31
2023-02-27T00:06:42.679Z,943.39
2023-02-27T00:09:09.124Z,943.39
2023-02-27T00:11:35.388Z,943.31
2023-02-27T00:14:01.729Z,943.33
2023-02-27T00:16:28.081Z,943.42
2023-02-27T00:18:54.477Z,943.25
2023-02-27T00:21:20.832Z,943.29
2023-02-27T00:23:47.165Z,943.33
2023-02-27T00:26:13.492Z,943.39
2023-02-27T00:28:39.886Z,943.36
2023-02-27T00:31:06.316Z,943.33
2023-02-27T00:33:32.588Z,943.37
2023-02-27T00:35:58.930Z,943.45
2023-02-27T00:38:25.282Z,943.40
2023-02-27T00:40:51.651Z,943.19
2023-02-27T00:43:18.024Z,943.42
2023-02-27T00:45:44.377Z,943.34
2023-02-27T00:48:11.077Z,943.40
2023-02-27T00:50:37.392Z,943.44
2023-02-27T00:53:03.735Z,943.34
2023-02-27T00:55:30.085Z,943.41
2023-02-27T00:57:56.429Z,943.41
2023-02-27T01:00:22.738Z,943.41
2023-02-27T01:02:49.243Z,943.37
2023-02-27T01:05:15.566Z,943.38
2023-02-27T01:07:41.894Z,943.34
2023-02-27T01:10:08.254Z,943.38
2023-02-27T01:12:34.653Z,943.29
2023-02-27T01:15:01.013Z,943.42
2023-02-27T01:17:27.396Z,943.51
2023-02-27T01:19:53.750Z,943.50
2023-02-27T01:22:20.134Z,943.53
2023-02-27T01:24:46.482Z,943.42
2023-02-27T01:27:12.824Z,943.44
2023-02-27T01:29:39.197Z,943.51
2023-02-27T01:32:05.661Z,943.45
2023-02-27T01:34:34.148Z,943.51
2023-02-27T01:36:58.253Z,943.47
2023-02-27T01:39:24.570Z,943.45
2023-02-27T01:41:50.968Z,943.54
2023-02-27T01:44:17.320Z,943.65
2023-02-27T01:46:43.740Z,943.82
2023-02-27T01:49:10.058Z,943.85
2023-02-27T01:51:36.444Z,943.93
2023-02-27T01:54:02.779Z,944.18
2023-02-27T01:56:29.175Z,944.11
2023-02-27T01:58:55.475Z,944.02
2023-02-27T02:01:21.918Z,944.04
2023-02-27T02:03:48.231Z,943.98
2023-02-27T02:06:14.613Z,943.94
2023-02-27T02:08:41.008Z,943.95
2023-02-27T02:11:07.387Z,944.21
2023-02-27T02:13:33.704Z,944.23
2023-02-27T02:16:00.057Z,944.43
2023-02-27T02:18:26.381Z,944.54
2023-02-27T02:20:52.769Z,944.47
2023-02-27T02:23:19.115Z,944.77
2023-02-27T02:25:45.491Z,945.27
2023-02-27T02:28:11.808Z,945.49
2023-02-27T02:30:38.301Z,946.14
2023-02-27T02:33:04.521Z,946.05
2023-02-27T02:35:30.865Z,946.12
2023-02-27T02:37:57.196Z,946.06
2023-02-27T02:40:23.573Z,945.90
2023-02-27T02:42:51.337Z,945.79
2023-02-27T02:45:16.289Z,946.03
2023-02-27T02:47:42.653Z,946.17
2023-02-27T02:50:09.006Z,946.27
2023-02-27T02:52:35.349Z,946.44
2023-02-27T02:55:01.692Z,946.47
2023-02-27T02:57:28.058Z,946.44
2023-02-27T02:59:54.457Z,946.41
2023-02-27T03:02:20.776Z,946.40
2023-02-27T03:04:47.175Z,946.43
2023-02-27T03:07:13.674Z,946.63
2023-02-27T03:09:39.843Z,946.64
2023-02-27T03:12:06.211Z,946.74
2023-02-27T03:14:32.554Z,946.92
2023-02-27T03:16:58.948Z,947.02
2023-02-27T03:19:25.296Z,947.02
2023-02-27T03:21:51.604Z,946.95
2023-02-27T03:24:17.967Z,946.92
2023-02-27T03:26:44.286Z,946.92
2023-02-27T03:29:10.656Z,947.04
2023-02-27T03:31:37.034Z,947.20
2023-02-27T03:34:03.324Z,947.26
2023-02-27T03:36:29.959Z,947.45
2023-02-27T03:38:56.335Z,947.53
2023-02-27T03:41:22.646Z,947.60
2023-02-27T03:43:49.014Z,947.69
2023-02-27T03:46:15.378Z,947.71
2023-02-27T03:48:41.749Z,947.65
2023-02-27T03:51:08.109Z,947.70
2023-02-27T03:53:34.496Z,947.70
2023-02-27T03:56:00.865Z,947.69
2023-02-27T03:58:27.221Z,947.83
2023-02-27T04:00:53.543Z,947.90
2023-02-27T04:03:19.887Z,947.96
2023-02-27T04:05:46.209Z,947.99
2023-02-27T04:08:12.563Z,948.00
2023-02-27T04:10:38.898Z,947.96
2023-02-27T04:13:05.285Z,947.99
2023-02-27T04:15:31.604Z,948.10
2023-02-27T04:17:57.942Z,948.20
2023-02-27T04:20:24.264Z,948.18
2023-02-27T04:22:50.643Z,948.19
2023-02-27T04:25:16.968Z,948.29
2023-02-27T04:27:43.380Z,948.34
2023-02-27T04:30:09.705Z,948.39
2023-02-27T04:32:36.257Z,948.49
2023-02-27T04:35:02.465Z,948.46
2023-02-27T04:37:28.832Z,948.48
2023-02-27T04:39:55.185Z,948.50
2023-02-27T04:42:21.563Z,948.67
2023-02-27T04:44:47.934Z,948.77
2023-02-27T04:47:14.386Z,948.90
2023-02-27T04:49:40.677Z,949.04
2023-02-27T04:52:07.057Z,949.04
2023-02-27T04:54:33.443Z,949.02
2023-02-27T04:56:59.814Z,949.12
2023-02-27T04:59:26.164Z,949.18
2023-02-27T05:01:52.717Z,949.11
2023-02-27T05:04:18.932Z,949.13
2023-02-27T05:06:45.340Z,949.17
2023-02-27T05:09:11.795Z,949.24
2023-02-27T05:11:38.102Z,949.28
2023-02-27T05:14:04.610Z,949.29
2023-02-27T05:16:31.095Z,949.35
2023-02-27T05:18:57.321Z,949.39
2023-02-27T05:21:23.718Z,949.41
2023-02-27T05:23:50.121Z,949.52
2023-02-27T05:26:16.503Z,949.53
2023-02-27T05:28:44.949Z,949.69
2023-02-27T05:31:09.186Z,949.72
2023-02-27T05:33:35.536Z,949.72
2023-02-27T05:36:01.924Z,949.72
2023-02-27T05:38:28.244Z,949.69
2023-02-27T05:40:54.647Z,949.76
2023-02-27T05:43:21.006Z,949.80
2023-02-27T05:45:47.410Z,949.92
2023-02-27T05:48:13.684Z,949.87
2023-02-27T05:50:40.084Z,949.88
2023-02-27T05:53:06.487Z,949.88
2023-02-27T05:55:32.808Z,949.81
2023-02-27T05:57:59.159Z,949.86
2023-02-27T06:00:25.741Z,949.92
2023-02-27T06:02:52.096Z,949.98
2023-02-27T06:05:18.471Z,950.08
2023-02-27T06:07:44.797Z,950.16
2023-02-27T06:10:11.178Z,950.19
2023-02-27T06:12:37.497Z,950.30
2023-02-27T06:15:03.844Z,950.24
2023-02-27T06:17:30.165Z,950.19
2023-02-27T06:19:56.707Z,950.25
2023-02-27T06:22:23.082Z,950.26
2023-02-27T06:24:49.466Z,950.23
2023-02-27T06:27:15.879Z,950.15
2023-02-27T06:29:42.218Z,950.18
2023-02-27T06:32:08.558Z,950.29
2023-02-27T06:34:34.886Z,950.41
2023-02-27T06:37:03.262Z,950.53
2023-02-27T06:39:27.601Z,950.54
2023-02-27T06:41:53.921Z,950.62
2023-02-27T06:44:20.294Z,950.60
2023-02-27T06:46:46.710Z,950.61
2023-02-27T06:49:13.108Z,950.62
2023-02-27T06:51:39.473Z,950.60
2023-02-27T06:54:05.858Z,950.67
2023-02-27T06:56:32.248Z,950.70
2023-02-27T06:58:59.674Z,950.70
2023-02-27T07:01:25.471Z,950.69
2023-02-27T07:03:51.724Z,950.65
2023-02-27T07:06:18.132Z,950.58
2023-02-27T07:09:01.491Z,950.58
2023-02-27T07:11:10.848Z,950.62
2023-02-27T07:13:37.241Z,950.61
2023-02-27T07:16:03.644Z,950.57
2023-02-27T07:18:29.946Z,950.60
2023-02-27T07:20:56.298Z,950.68
2023-02-27T07:23:22.642Z,950.66
2023-02-27T07:25:49.071Z,950.72
2023-02-27T07:28:15.441Z,950.84
2023-02-27T07:30:41.762Z,950.86
2023-02-27T07:33:08.350Z,950.79
2023-02-27T07:35:34.711Z,950.87
2023-02-27T07:38:01.040Z,950.91
2023-02-27T07:40:27.507Z,950.89
2023-02-27T07:42:54.085Z,950.84
2023-02-27T07:45:20.413Z,950.81
2023-02-27T07:47:46.860Z,950.89
2023-02-27T07:50:13.248Z,950.89
2023-02-27T07:52:39.646Z,950.98
2023-02-27T07:55:06.336Z,951.01
2023-02-27T07:57:32.745Z,950.95
2023-02-27T07:59:59.107Z,950.97
2023-02-27T08:02:25.467Z,950.99
2023-02-27T08:04:51.882Z,951.03
2023-02-27T08:07:18.369Z,951.02
2023-02-27T08:09:44.748Z,951.04
2023-02-27T08:12:11.098Z,951.08
2023-02-27T08:14:37.421Z,951.02
2023-02-27T08:17:03.851Z,951.00
2023-02-27T08:19:30.173Z,950.95
2023-02-27T08:21:56.584Z,950.93
2023-02-27T08:24:22.954Z,951.06
2023-02-27T08:26:49.318Z,951.14
2023-02-27T08:29:17.072Z,951.18
2023-02-27T08:31:42.131Z,951.09
2023-02-27T08:34:10.645Z,951.09
2023-02-27T08:36:34.772Z,951.12
2023-02-27T08:39:01.096Z,950.96
2023-02-27T08:41:27.477Z,950.97
2023-02-27T08:43:53.845Z,951.02
2023-02-27T08:46:20.171Z,951.03
2023-02-27T08:48:46.522Z,950.99
2023-02-27T08:51:12.908Z,951.03
2023-02-27T08:53:41.434Z,951.05
2023-02-27T08:56:07.762Z,950.96
2023-02-27T08:58:34.135Z,951.01
2023-02-27T09:01:00.476Z,951.15
2023-02-27T09:03:26.815Z,951.21
2023-02-27T09:05:53.193Z,951.33
2023-02-27T09:08:19.540Z,951.24
2023-02-27T09:10:45.899Z,951.29
2023-02-27T09:13:12.234Z,951.27
2023-02-27T09:15:38.628Z,951.45
2023-02-27T09:18:05.155Z,951.36
2023-02-27T09:20:31.550Z,951.44
2023-02-27T09:22:57.944Z,951.43
2023-02-27T09:25:24.309Z,951.45
2023-02-27T09:27:50.673Z,951.44
2023-02-27T09:30:17.052Z,951.47
2023-02-27T09:32:43.476Z,951.42
2023-02-27T09:35:09.763Z,951.44
2023-02-27T09:37:36.166Z,951.43
2023-02-27T09:40:02.652Z,951.52
2023-02-27T09:42:30.277Z,951.46
2023-02-27T09:44:56.870Z,951.43
2023-02-27T09:47:23.238Z,951.39
2023-02-27T09:49:49.578Z,951.47
2023-02-27T09:52:15.976Z,951.47
2023-02-27T09:54:44.558Z,951.50
2023-02-27T09:57:08.737Z,951.66
2023-02-27T09:59:35.124Z,951.68
2023-02-27T10:02:01.504Z,951.67
2023-02-27T10:04:27.814Z,951.68
2023-02-27T10:06:54.448Z,951.75
2023-02-27T10:09:21.041Z,951.81
2023-02-27T10:11:47.409Z,951.78
2023-02-27T10:14:13.725Z,951.79
2023-02-27T10:16:40.154Z,951.78
2023-02-27T10:19:06.431Z,951.77
2023-02-27T10:21:33.092Z,951.80
2023-02-27T10:23:59.174Z,951.73
2023-02-27T10:26:25.511Z,951.75
2023-02-27T10:28:51.874Z,951.79
2023-02-27T10:31:20.164Z,951.79
2023-02-27T10:33:44.695Z,951.87
2023-02-27T10:36:12.435Z,951.68
2023-02-27T10:38:37.582Z,951.54
2023-02-27T10:41:04.104Z,951.68
2023-02-27T10:43:30.461Z,951.61
2023-02-27T10:45:56.956Z,951.56
2023-02-27T10:48:23.218Z,951.64
2023-02-27T10:50:49.583Z,951.60
2023-02-27T10:53:15.904Z,951.46
2023-02-27T10:55:42.286Z,951.57
2023-02-27T10:58:08.679Z,951.67
2023-02-27T11:00:35.065Z,951.54
2023-02-27T11:03:01.379Z,951.50
2023-02-27T11:05:27.794Z,951.60
2023-02-27T11:07:54.098Z,951.59
2023-02-27T11:10:20.464Z,951.51
2023-02-27T11:12:46.790Z,951.49
2023-02-27T11:15:13.226Z,951.38
2023-02-27T11:17:39.647Z,951.35
2023-02-27T11:20:06.056Z,951.35
2023-02-27T11:22:32.346Z,951.44
2023-02-27T11:24:58.761Z,951.35
2023-02-27T11:27:25.172Z,951.26
2023-02-27T11:29:51.633Z,951.23
2023-02-27T11:32:18.055Z,951.15
2023-02-27T11:34:44.385Z,951.18
2023-02-27T11:37:10.738Z,951.29
2023-02-27T11:39:37.095Z,951.18
2023-02-27T11:42:03.500Z,951.16
2023-02-27T11:44:38.707Z,951.16
2023-02-27T11:46:57.171Z,951.28
2023-02-27T11:49:22.525Z,951.31
2023-02-27T11:51:48.877Z,951.36
2023-02-27T11:54:15.267Z,951.32
2023-02-27T11:56:41.888Z,951.27
2023-02-27T11:59:08.231Z,951.29
2023-02-27T12:01:34.557Z,951.29
2023-02-27T12:04:00.932Z,951.13
2023-02-27T12:06:27.225Z,951.17
2023-02-27T12:08:53.708Z,951.11
2023-02-27T12:11:20.034Z,951.10
2023-02-27T12:13:46.371Z,951.09
2023-02-27T12:16:12.775Z,951.11
2023-02-27T12:18:39.113Z,951.11
2023-02-27T12:21:05.471Z,951.14
2023-02-27T12:23:32.094Z,951.11
2023-02-27T12:25:58.410Z,951.15
2023-02-27T12:28:24.759Z,951.14
2023-02-27T12:30:51.336Z,951.13
2023-02-27T12:33:17.688Z,951.15
2023-02-27T12:35:44.081Z,951.09
2023-02-27T12:38:10.417Z,951.09
2023-02-27T12:40:36.769Z,951.00
2023-02-27T12:43:03.113Z,951.01
2023-02-27T12:45:29.525Z,951.05
2023-02-27T12:47:55.845Z,951.06
2023-02-27T12:50:22.201Z,951.09
2023-02-27T12:52:48.553Z,951.06
2023-02-27T12:55:14.915Z,951.00
2023-02-27T12:57:41.336Z,951.01
2023-02-27T13:00:07.720Z,951.13
2023-02-27T13:02:34.068Z,951.05
2023-02-27T13:05:00.426Z,951.00
2023-02-27T13:07:26.774Z,951.03
2023-02-27T13:09:53.251Z,951.04
2023-02-27T13:12:19.639Z,951.12
2023-02-27T13:14:45.982Z,951.17
2023-02-27T13:17:12.367Z,951.14
2023-02-27T13:19:38.677Z,951.18
2023-02-27T13:22:05.026Z,951.15
2023-02-27T13:24:31.390Z,951.13
2023-02-27T13:26:57.767Z,951.14
2023-02-27T13:29:24.134Z,951.23
2023-02-27T13:31:50.622Z,951.15
2023-02-27T13:34:16.802Z,951.12
2023-02-27T13:36:43.226Z,951.05
2023-02-27T13:39:09.621Z,951.03
2023-02-27T13:41:36.313Z,950.97
2023-02-27T13:44:02.392Z,951.06
2023-02-27T13:46:28.732Z,951.08
2023-02-27T13:48:55.093Z,951.04
2023-02-27T13:51:21.466Z,951.14
2023-02-27T13:53:47.825Z,951.19
2023-02-27T13:56:14.158Z,951.24
2023-02-27T13:58:40.633Z,951.28
2023-02-27T14:01:06.932Z,951.40
2023-02-27T14:03:33.269Z,951.53
2023-02-27T14:05:59.652Z,951.47
2023-02-27T14:08:26.007Z,951.44
2023-02-27T14:10:52.386Z,951.57
2023-02-27T14:13:18.706Z,951.58
2023-02-27T14:15:45.204Z,951.62
2023-02-27T14:18:22.856Z,951.46
2023-02-27T14:20:37.951Z,951.40
2023-02-27T14:23:04.285Z,951.56
2023-02-27T14:25:30.654Z,951.48
2023-02-27T14:27:57.271Z,951.36
2023-02-27T14:30:23.456Z,951.52
2023-02-27T14:32:49.760Z,951.65
2023-02-27T14:35:16.155Z,951.75
2023-02-27T14:37:42.471Z,951.75
2023-02-27T14:40:09.845Z,951.73
2023-02-27T14:42:35.188Z,951.81
2023-02-27T14:45:01.599Z,951.99
2023-02-27T14:47:27.952Z,952.06
2023-02-27T14:49:54.292Z,952.04
2023-02-27T14:52:20.693Z,951.95
2023-02-27T14:54:47.054Z,951.87
2023-02-27T14:57:13.384Z,951.89
2023-02-27T14:59:39.760Z,952.02
2023-02-27T15:02:06.119Z,952.12
2023-02-27T15:04:32.591Z,952.12
2023-02-27T15:06:58.867Z,952.19
2023-02-27T15:09:25.218Z,952.29
2023-02-27T15:12:03.187Z,952.33
2023-02-27T15:14:17.924Z,952.33
2023-02-27T15:16:44.302Z,952.38
2023-02-27T15:19:10.649Z,952.58
2023-02-27T15:21:36.991Z,952.66
2023-02-27T15:24:03.343Z,952.62
2023-02-27T15:26:29.911Z,952.41
2023-02-27T15:28:56.012Z,952.43
2023-02-27T15:31:23.145Z,952.47
2023-02-27T15:33:49.562Z,952.56
2023-02-27T15:36:15.917Z,952.66
2023-02-27T15:38:42.257Z,952.71
2023-02-27T15:41:08.607Z,952.80
2023-02-27T15:43:35.017Z,952.91
2023-02-27T15:46:01.448Z,952.89
2023-02-27T15:48:27.791Z,952.89
2023-02-27T15:50:54.198Z,952.90
2023-02-27T15:53:20.577Z,953.00
2023-02-27T15:55:46.912Z,953.06
2023-02-27T15:58:13.312Z,953.12
2023-02-27T16:00:39.606Z,953.17
2023-02-27T16:03:06.157Z,953.25
2023-02-27T16:05:32.534Z,953.28
2023-02-27T16:07:58.938Z,953.34
2023-02-27T16:10:25.309Z,953.38
2023-02-27T16:12:51.679Z,953.30
2023-02-27T16:15:18.096Z,953.29
2023-02-27T16:17:44.495Z,953.37
2023-02-27T16:20:10.817Z,953.41
2023-02-27T16:22:37.166Z,953.39
2023-02-27T16:25:04.375Z,953.55
2023-02-27T16:27:32.901Z,953.56
2023-02-27T16:29:59.231Z,953.49
2023-02-27T16:32:25.931Z,953.51
2023-02-27T16:34:52.210Z,953.50
2023-02-27T16:37:18.591Z,953.42
2023-02-27T16:39:45.244Z,953.45
2023-02-27T16:42:11.744Z,953.48
2023-02-27T16:44:38.103Z,953.42
2023-02-27T16:47:04.483Z,953.42
2023-02-27T16:49:32.646Z,953.57
2023-02-27T16:51:57.338Z,953.57
2023-02-27T16:54:23.648Z,953.55
2023-02-27T16:56:50.254Z,953.54
2023-02-27T16:59:16.570Z,953.55
2023-02-27T17:01:42.956Z,953.61
2023-02-27T17:04:24.632Z,953.70
2023-02-27T17:06:36.232Z,953.85
2023-02-27T17:09:02.685Z,953.95
2023-02-27T17:11:28.921Z,953.94
2023-02-27T17:13:55.279Z,953.93
2023-02-27T17:16:21.718Z,953.97
2023-02-27T17:18:47.981Z,953.95
2023-02-27T17:21:14.546Z,954.14
2023-02-27T17:23:40.925Z,954.32
2023-02-27T17:26:07.307Z,954.34
2023-02-27T17:28:33.791Z,954.28
2023-02-27T17:31:00.307Z,954.13
2023-02-27T17:33:26.564Z,954.08
2023-02-27T17:35:52.948Z,954.04
2023-02-27T17:38:19.337Z,954.06
2023-02-27T17:40:45.716Z,953.94
2023-02-27T17:43:12.031Z,953.86
2023-02-27T17:45:38.481Z,953.90
2023-02-27T17:48:04.898Z,954.07
2023-02-27T17:50:31.254Z,954.10
2023-02-27T17:52:57.710Z,954.06
2023-02-27T17:55:24.088Z,954.08
2023-02-27T17:57:50.425Z,954.17
2023-02-27T18:00:16.814Z,954.28
2023-02-27T18:02:43.285Z,954.35
2023-02-27T18:05:09.614Z,954.34
2023-02-27T18:07:35.962Z,954.28
2023-02-27T18:10:02.380Z,954.27
2023-02-27T18:12:28.727Z,954.36
2023-02-27T18:14:55.128Z,954.29
2023-02-27T18:17:21.446Z,954.32
2023-02-27T18:19:47.836Z,954.30
2023-02-27T18:22:14.154Z,954.30
2023-02-27T18:24:40.531Z,954.29
2023-02-27T18:27:07.230Z,954.30
2023-02-27T18:29:33.602Z,954.25
2023-02-27T18:31:59.947Z,954.24
2023-02-27T18:34:26.372Z,954.40
2023-02-27T18:36:52.681Z,954.38
2023-02-27T18:39:21.466Z,954.24
2023-02-27T18:41:48.914Z,954.30
2023-02-27T18:44:15.301Z,954.32
2023-02-27T18:46:41.657Z,954.27
2023-02-27T18:49:07.969Z,954.28
2023-02-27T18:51:34.310Z,954.29
2023-02-27T18:54:00.658Z,954.33
2023-02-27T18:56:27.530Z,954.33
2023-02-27T18:58:55.855Z,954.29
2023-02-27T19:01:22.177Z,954.40
2023-02-27T19:03:48.829Z,954.45
2023-02-27T19:06:15.180Z,954.40
2023-02-27T19:08:41.572Z,954.45
2023-02-27T19:11:07.904Z,954.46
2023-02-27T19:13:34.267Z,954.59
2023-02-27T19:16:00.704Z,954.69
2023-02-27T19:18:27.044Z,954.83
2023-02-27T19:20:53.939Z,954.97
2023-02-27T19:23:19.809Z,955.07
2023-02-27T19:25:46.185Z,954.93
2023-02-27T19:28:12.590Z,954.75
2023-02-27T19:30:38.942Z,954.57
2023-02-27T19:33:05.361Z,954.60
2023-02-27T19:35:31.713Z,954.68
2023-02-27T19:37:58.146Z,954.77
2023-02-27T19:40:24.658Z,954.90
2023-02-27T19:42:50.983Z,954.98
2023-02-27T19:45:17.470Z,955.08
2023-02-27T19:47:43.807Z,955.13
2023-02-27T19:50:10.165Z,955.05
2023-02-27T19:52:36.551Z,955.18
2023-02-27T19:55:03.158Z,955.04
2023-02-27T19:57:29.806Z,955.09
2023-02-27T19:59:56.140Z,955.18
2023-02-27T20:02:22.554Z,955.28
2023-02-27T20:04:48.921Z,955.38
2023-02-27T20:07:15.283Z,955.34
2023-02-27T20:09:41.663Z,955.39
2023-02-27T20:12:07.999Z,955.52
2023-02-27T20:14:34.337Z,955.53
2023-02-27T20:17:00.717Z,955.50
2023-02-27T20:19:27.057Z,955.56
2023-02-27T20:21:53.418Z,955.57
2023-02-27T20:24:19.948Z,955.58
2023-02-27T20:26:47.730Z,955.50
2023-02-27T20:29:12.955Z,955.46
2023-02-27T20:31:39.400Z,955.44
2023-02-27T20:34:06.709Z,955.42
2023-02-27T20:36:33.020Z,955.58
2023-02-27T20:38:59.393Z,955.64
2023-02-27T20:41:28.232Z,955.61
2023-02-27T20:43:52.091Z,955.62
2023-02-27T20:46:18.741Z,955.52
2023-02-27T20:48:45.031Z,955.51
2023-02-27T20:51:11.350Z,955.52
2023-02-27T20:53:40.241Z,955.54
2023-02-27T20:56:06.808Z,955.60
2023-02-27T20:58:33.137Z,955.65
2023-02-27T21:01:00.548Z,955.66
2023-02-27T21:03:29.224Z,955.66
2023-02-27T21:05:53.198Z,955.63
2023-02-27T21:08:19.657Z,955.63
2023-02-27T21:10:45.976Z,955.77
2023-02-27T21:13:12.355Z,955.86
2023-02-27T21:15:38.707Z,955.93
2023-02-27T21:18:05.057Z,956.00
2023-02-27T21:20:31.438Z,956.00
2023-02-27T21:22:57.767Z,956.11
2023-02-27T21:25:24.118Z,956.17
2023-02-27T21:27:50.513Z,956.26
2023-02-27T21:30:16.842Z,956.38
2023-02-27T21:32:43.213Z,956.43
2023-02-27T21:35:09.570Z,956.48
2023-02-27T21:37:35.911Z,956.61
2023-02-27T21:40:02.237Z,956.62
2023-02-27T21:42:28.667Z,956.59
2023-02-27T21:44:54.981Z,956.62
2023-02-27T21:47:21.368Z,956.62
2023-02-27T21:49:47.679Z,956.62
2023-02-27T21:52:14.048Z,956.54
2023-02-27T21:54:40.453Z,956.64
2023-02-27T21:57:06.787Z,956.57
2023-02-27T21:59:33.197Z,956.51
2023-02-27T22:01:59.623Z,956.64
2023-02-27T22:04:25.869Z,956.57
2023-02-27T22:06:54.698Z,956.48
2023-02-27T22:09:21.022Z,956.43
2023-02-27T22:11:49.608Z,956.35
2023-02-27T22:14:15.937Z,956.23
2023-02-27T22:16:42.358Z,956.21
2023-02-27T22:19:08.708Z,956.17
2023-02-27T22:21:35.053Z,956.19
2023-02-27T22:24:01.414Z,956.13
2023-02-27T22:26:27.815Z,956.20
2023-02-27T22:28:54.169Z,956.29
2023-02-27T22:31:20.616Z,956.42
2023-02-27T22:33:46.879Z,956.50
2023-02-27T22:36:13.266Z,956.62
2023-02-27T22:38:39.609Z,956.65
2023-02-27T22:41:05.985Z,956.68
2023-02-27T22:43:32.293Z,956.79
2023-02-27T22:45:58.682Z,956.77
2023-02-27T22:48:25.054Z,956.72
2023-02-27T22:50:51.443Z,956.77
2023-02-27T22:53:17.806Z,956.73
2023-02-27T22:55:44.194Z,956.62
2023-02-27T22:58:10.513Z,956.63
2023-02-27T23:00:36.867Z,956.70
2023-02-27T23:03:03.197Z,956.72
2023-02-27T23:05:29.636Z,956.71
2023-02-27T23:07:55.996Z,956.64
2023-02-27T23:10:22.329Z,956.59
2023-02-27T23:12:48.684Z,956.70
2023-02-27T23:15:15.079Z,956.73
2023-02-27T23:17:52.011Z,956.78
2023-02-27T23:20:07.839Z,956.86
2023-02-27T23:22:34.192Z,956.77
2023-02-27T23:25:00.566Z,956.71
2023-02-27T23:27:27.206Z,956.77
2023-02-27T23:29:53.587Z,956.79
2023-02-27T23:32:20.073Z,956.82
2023-02-27T23:34:49.573Z,956.81
2023-02-27T23:37:12.727Z,956.86
2023-02-27T23:39:39.067Z,956.80
2023-02-27T23:42:05.413Z,956.77
2023-02-27T23:44:31.790Z,956.75
2023-02-27T23:46:58.109Z,956.75
2023-02-27T23:49:24.501Z,956.77
2023-02-27T23:51:50.852Z,956.78
2023-02-27T23:54:17.240Z,956.84
2023-02-27T23:56:43.916Z,956.80
2023-02-27T23:59:10.311Z,956.84
